Nearby METAR Reports

 

EGQL - Leuchars Raf, United Kingdom
Distance from station: SW 17km
Updated: 28/05/2020 01:50
Light rain, Mostly cloudy
Light rain, Mostly cloudy
 Wind from ESE
Wind: ESE 5 mph , 7 km/h
Temperature: 11°C
Dew Point: 7°C
Humidity: 77%
Barometer: 1036 hPa
Summary: Light rain
Clouds: Mostly cloudy
Visibility: 6 miles , 10 km
Cloud details: Mostly cloudy 1829 m
2020/05/27 23:50 EGQL 272350Z 12004KT 9999 -RA BKN060 11/07 Q1036 BLU
EGPN - Dundee/Riverside, United Kingdom
Distance from station: WSW 20km
Updated: 27/05/2020 21:20
NOT Current
Clear
Clear
 Wind from E
Wind: E 7 mph , 11 km/h
Temperature: 12°C
Dew Point: 6°C
Humidity: 67%
Barometer: 1037 hPa
Summary: Clear
Visibility: greater than 7 miles , 10 km
2020/05/27 19:20 EGPN 271920Z 09006KT CAVOK 12/06 Q1037
 
EGPH - Edinburgh Airpor, United Kingdom
Distance from station: SSW 74km
Updated: 28/05/2020 01:50
Clear
Clear
 Wind from varies
Wind: varies 2 mph , 4 km/h
Temperature: 11°C
Dew Point: 8°C
Humidity: 82%
Barometer: 1036 hPa
Summary: Clear
Visibility: greater than 7 miles , 10 km
2020/05/27 23:50 EGPH 272350Z VRB02KT CAVOK 11/08 Q1036
EGPD - Aberdeen/Dyce, United Kingdom
Distance from station: NNE 82km
Updated: 28/05/2020 01:50
Light rain, Thunderstorm
Light rain, Thunderstorm
 Wind from SSE
Wind: SSE 7 mph , 11 km/h
Temperature: 9°C
Wind Chill: 7°C
Dew Point: 7°C
Humidity: 87%
Barometer: 1036 hPa
Summary: Light rain
Clouds: Thunderstorm
Visibility: 6 miles , 10 km
2020/05/27 23:50 EGPD 272350Z AUTO 16006KT 130V200 9999 -RA //////TCU 09/07 Q1036